Due to severe server failure at the provider, not all demo sites are operational. Will take some days to rebuilt everything.

Demonstration site - Click on the  for more information

This is an optional block. Switch it on/off in your settings-file: $SITE['bannerTop'] = false; or $SITE['bannerBottom'] = false;

You can display ads, any other important text or photo’s using text / html or PHP code.

You can place one or more at the top and or bottom and it can all be different for content / size .



Visit our other weather sites:

Template documentation
and downloads

And another site



Nearby METAR Reports

   
EBAW - Antwerp
Updated: 26-05-2019 23:20
Drizzle, Overcast  
Drizzle, Overcast  
   Wind: SW 14.8 km/h
Wind: SW 14.8 km/h
Temperature: 14°C
Dew Point: 13°C
Humidity: 94%
Barometer: 1011 hPa
Clouds: Overcast
Visibility: 4 km
Cloud details: Overcast 200 ft
EBAW 262120Z AUTO 23008KT 190V260 3600 DZ OVC002/// 14/13 Q1011
EBLG - Liège
Updated: 26-05-2019 23:20
Partly Cloudy  
Partly Cloudy  
   Wind: SW 20.4 km/h
Wind: SW 20.4 km/h
Temperature: 14°C
Dew Point: 11°C
Humidity: 82%
Barometer: 1012 hPa
Clouds: Partly Cloudy
Visibility: More than 10 km
Cloud details: Partly Cloudy 3300 ft
EBLG 262120Z 23011KT 9999 SCT033 14/11 Q1012 NOSIG
EBCV - Mons/Bergen
Updated: 26-05-2019 23:25
Overcast  
Overcast  
   Wind: SW 22.2 km/h
Wind: SW 22.2 km/h
Temperature: 14°C
Dew Point: 13°C
Humidity: 94%
Barometer: 1013 hPa
Clouds: Overcast
Visibility: More than 10 km
Cloud details: Overcast 1000 ft
EBCV 262125Z AUTO 23012KT 9999 OVC010/// 14/13 Q1013 GRN
EHBK - Maastricht
Updated: 26-05-2019 23:25
Partly Cloudy  
Partly Cloudy  
   Wind: SW 22.2 km/h
Wind: SW 22.2 km/h
Temperature: 15°C
Dew Point: 11°C
Humidity: 77%
Barometer: 1011 hPa
Clouds: Partly Cloudy
Visibility: More than 10 km
Cloud details: Partly Cloudy ft
EHBK 262125Z AUTO 23012KT 9999 NSC 15/11 Q1011
ELLX - Luxemburg
Updated: 26-05-2019 23:20
Mostly Cloudy  
Mostly Cloudy  
   Wind: West 20.4 km/h
Wind: West 20.4 km/h
Temperature: 16°C
Dew Point: 12°C
Humidity: 77%
Barometer: 1013 hPa
Clouds: Mostly Cloudy
Visibility: More than 10 km
Cloud details: Few Clouds 2800 ft,
Mostly Cloudy 4700 ft
ELLX 262120Z 27011KT 9999 FEW028 BKN047 16/12 Q1013 NOSIG
EBOS - Oostende
Updated: 26-05-2019 23:20
Light Rain, Mist, Mostly Cloudy  
Light Rain, Mist, Mostly Cloudy  
   Wind: WSW 20.4 km/h
Wind: WSW 20.4 km/h
Temperature: 13°C
Dew Point: 12°C
Humidity: 94%
Barometer: 1011 hPa
Clouds: Mostly Cloudy
Visibility: 5 km
Cloud details: Partly Cloudy 500 ft,
Mostly Cloudy 700 ft
EBOS 262120Z 24011KT 5000 -RA BR SCT005 BKN007 13/12 Q1011 TEMPO 3000 DZRA BR

Script developed by  Saratoga-weather.org Adapted for the template by  Weerstation Leuven

This is an optional block. Switch it on/off in your settings-file: $SITE['bannerTop'] = false; or $SITE['bannerBottom'] = false;

You can display ads, any other important text or photo’s using text / html or PHP code.

You can place one or more at the top and or bottom and it can all be different for content / size .